Veuillez saisir l'adresse e-mail associée à votre compte d'utilisateur. Un code de vérification vous sera adressé. Lorsque vous le recevrez, vous pourrez choisir un nouveau mot de passe

METAR TAF

[Source: ADDS]
METAR
LFCR 232100Z AUTO 34005KT CAVOK 13/01 Q1025 NOSIG =
LFCR 231700Z 2318/2418 30005KT CAVOK BECMG 2321/2323 VRB02KT BECMG 2411/2413 29008KT LFBA 232100Z AUTO 23002KT CAVOK 08/03 Q1025 NOSIG =
LFBA 231700Z 2318/2403 30005KT CAVOK LFSL 232100Z AUTO 34007KT CAVOK 14/02 Q1025 NOSIG =
LFSL 231700Z 2318/2403 33005KT CAVOK BECMG 2321/2323 VRB02KT LFLW 232030Z AUTO 09003KT CAVOK 10/03 Q1025 =
LFLW 231400Z 2315/2324 30005KT CAVOK BECMG 2318/2321 VRB02KT
TAF
LFCR 231700Z 2318/2418 30005KT CAVOK BECMG 2321/2323 VRB02KT BECMG 2411/2413 29008KT =
LFBA 231700Z 2318/2403 30005KT CAVOK =
LFSL 231700Z 2318/2403 33005KT CAVOK BECMG 2321/2323 VRB02KT =
LFLW 231400Z 2315/2324 30005KT CAVOK BECMG 2318/2321 VRB02KT =
SR / SS: 05:51 / 18:09 UTC (LFCC 2019-03-23)